createdAt,value
2023-04-11T00:01:32.571Z,88.04
2023-04-11T00:04:00.991Z,88.78
2023-04-11T00:06:29.224Z,89.38
2023-04-11T00:08:57.533Z,89.18
2023-04-11T00:11:26.320Z,89.17
2023-04-11T00:13:57.832Z,88.48
2023-04-11T00:16:26.886Z,88.27
2023-04-11T00:18:57.427Z,88.80
2023-04-11T00:21:25.751Z,88.06
2023-04-11T00:23:54.389Z,87.55
2023-04-11T00:26:22.409Z,89.10
2023-04-11T00:28:50.541Z,88.97
2023-04-11T00:31:18.452Z,89.65
2023-04-11T00:33:46.580Z,88.22
2023-04-11T00:36:14.698Z,88.58
2023-04-11T00:38:42.628Z,88.80
2023-04-11T00:41:11.235Z,88.67
2023-04-11T00:43:39.158Z,88.94
2023-04-11T00:46:10.017Z,88.94
2023-04-11T00:48:38.513Z,89.10
2023-04-11T00:51:06.651Z,88.56
2023-04-11T00:53:38.183Z,88.36
2023-04-11T00:56:07.107Z,88.09
2023-04-11T00:58:37.753Z,89.04
2023-04-11T01:01:16.884Z,87.12
2023-04-11T01:03:48.523Z,88.30
2023-04-11T01:06:20.951Z,87.88
2023-04-11T01:08:50.285Z,87.61
2023-04-11T01:11:20.397Z,87.61
2023-04-11T01:13:50.310Z,88.23
2023-04-11T01:16:22.045Z,87.30
2023-04-11T01:18:50.190Z,87.75
2023-04-11T01:21:19.861Z,87.85
2023-04-11T01:23:53.006Z,88.02
2023-04-11T01:26:21.642Z,86.43
2023-04-11T01:28:49.571Z,86.56
2023-04-11T01:31:17.975Z,86.38
2023-04-11T01:33:46.125Z,86.56
2023-04-11T01:36:14.198Z,86.96
2023-04-11T01:38:42.185Z,86.88
2023-04-11T01:41:11.300Z,86.43
2023-04-11T01:43:39.594Z,87.50
2023-04-11T01:46:07.921Z,86.97
2023-04-11T01:48:39.203Z,87.35
2023-04-11T01:51:07.739Z,86.53
2023-04-11T01:53:35.538Z,87.16
2023-04-11T01:56:03.840Z,87.07
2023-04-11T01:58:31.692Z,88.30
2023-04-11T02:00:59.674Z,88.36
2023-04-11T02:03:27.947Z,88.39
2023-04-11T02:05:56.538Z,88.14
2023-04-11T02:08:24.696Z,88.24
2023-04-11T02:10:52.713Z,88.75
2023-04-11T02:13:20.531Z,88.09
2023-04-11T02:15:48.725Z,87.44
2023-04-11T02:18:16.966Z,87.80
2023-04-11T02:20:45.051Z,87.64
2023-04-11T02:23:13.074Z,88.13
2023-04-11T02:25:41.442Z,87.87
2023-04-11T02:28:09.337Z,86.96
2023-04-11T02:30:37.288Z,87.50
2023-04-11T02:33:05.263Z,86.73
2023-04-11T02:35:34.251Z,86.09
2023-04-11T02:38:02.447Z,86.17
2023-04-11T02:40:31.373Z,87.54
2023-04-11T02:43:01.300Z,88.06
2023-04-11T02:45:30.086Z,87.93
2023-04-11T02:47:58.741Z,87.24
2023-04-11T02:50:27.328Z,87.11
2023-04-11T02:55:56.303Z,88.04
2023-04-11T02:58:26.155Z,88.23
2023-04-11T03:00:57.767Z,88.34
2023-04-11T03:03:26.602Z,88.52
2023-04-11T03:05:55.005Z,88.35
2023-04-11T03:08:25.047Z,89.57
2023-04-11T03:10:54.720Z,88.53
2023-04-11T03:13:26.434Z,89.01
2023-04-11T03:15:55.061Z,89.08
2023-04-11T03:18:26.728Z,89.33
2023-04-11T03:20:56.315Z,88.88
2023-04-11T03:23:24.539Z,89.56
2023-04-11T03:25:54.829Z,88.91
2023-04-11T03:28:24.341Z,89.07
2023-04-11T03:30:53.303Z,88.64
2023-04-11T03:33:26.849Z,88.84
2023-04-11T03:35:54.949Z,88.40
2023-04-11T03:38:22.981Z,88.33
2023-04-11T03:40:50.916Z,87.98
2023-04-11T03:43:22.075Z,88.08
2023-04-11T03:45:52.026Z,87.25
2023-04-11T03:48:52.746Z,86.90
2023-04-11T03:51:22.437Z,86.97
2023-04-11T03:53:57.959Z,87.24
2023-04-11T03:56:39.154Z,87.87
2023-04-11T03:59:10.397Z,88.27
2023-04-11T04:01:51.669Z,88.11
2023-04-11T04:04:19.591Z,88.15
2023-04-11T04:06:57.053Z,88.50
2023-04-11T04:09:32.934Z,88.61
2023-04-11T04:12:01.924Z,89.29
2023-04-11T04:14:46.830Z,88.48
2023-04-11T04:17:17.760Z,88.52
2023-04-11T04:19:45.964Z,89.00
2023-04-11T04:22:17.942Z,88.35
2023-04-11T04:24:53.203Z,89.05
2023-04-11T04:27:25.327Z,88.68
2023-04-11T04:30:03.542Z,89.66
2023-04-11T04:32:46.445Z,88.94
2023-04-11T04:35:16.943Z,89.64
2023-04-11T04:37:46.054Z,89.45
2023-04-11T04:40:38.337Z,90.43
2023-04-11T04:43:11.783Z,89.51
2023-04-11T04:45:49.647Z,89.53
2023-04-11T04:48:25.805Z,90.37
2023-04-11T04:50:54.430Z,90.02
2023-04-11T04:53:22.336Z,89.86
2023-04-11T04:55:55.292Z,90.83
2023-04-11T04:58:24.022Z,91.01
2023-04-11T05:00:56.294Z,90.53
2023-04-11T05:03:35.019Z,90.28
2023-04-11T05:06:09.579Z,89.82
2023-04-11T05:08:38.719Z,90.19
2023-04-11T05:11:10.004Z,89.82
2023-04-11T05:13:38.163Z,89.10
2023-04-11T05:16:07.452Z,88.75
2023-04-11T05:18:35.713Z,89.13
2023-04-11T05:21:07.503Z,88.61
2023-04-11T05:23:38.980Z,87.97
2023-04-11T05:26:08.682Z,86.88
2023-04-11T05:28:38.233Z,86.99
2023-04-11T05:31:12.405Z,87.04
2023-04-11T05:33:42.355Z,86.14
2023-04-11T05:36:14.664Z,86.73
2023-04-11T05:38:44.084Z,85.60
2023-04-11T05:41:12.166Z,85.89
2023-04-11T05:43:40.186Z,85.84
2023-04-11T05:46:10.799Z,84.34
2023-04-11T05:48:39.518Z,83.66
2023-04-11T05:51:08.427Z,83.36
2023-04-11T05:53:36.254Z,83.32
2023-04-11T05:56:04.248Z,83.17
2023-04-11T05:58:32.259Z,83.06
2023-04-11T06:01:01.038Z,83.05
2023-04-11T06:03:29.139Z,81.29
2023-04-11T06:05:57.187Z,81.56
2023-04-11T06:08:25.130Z,82.03
2023-04-11T06:10:53.227Z,81.28
2023-04-11T06:13:21.416Z,81.80
2023-04-11T06:15:49.758Z,81.97
2023-04-11T06:18:17.686Z,81.86
2023-04-11T06:20:47.285Z,81.39
2023-04-11T06:23:15.300Z,81.60
2023-04-11T06:25:43.359Z,81.54
2023-04-11T06:28:11.497Z,82.66
2023-04-11T06:30:39.446Z,81.06
2023-04-11T06:33:07.335Z,81.24
2023-04-11T06:35:36.389Z,80.89
2023-04-11T06:38:04.281Z,80.83
2023-04-11T06:40:32.254Z,81.26
2023-04-11T06:43:02.011Z,81.21
2023-04-11T06:45:31.779Z,82.09
2023-04-11T06:47:59.849Z,80.23
2023-04-11T06:50:27.893Z,80.05
2023-04-11T06:52:56.164Z,78.71
2023-04-11T06:55:24.288Z,78.98
2023-04-11T06:57:52.530Z,78.84
2023-04-11T07:00:21.338Z,77.82
2023-04-11T07:02:49.509Z,78.37
2023-04-11T07:05:17.891Z,77.69
2023-04-11T07:07:46.030Z,76.45
2023-04-11T07:10:13.892Z,74.83
2023-04-11T07:12:41.927Z,74.23
2023-04-11T07:15:10.459Z,74.22
2023-04-11T07:17:38.442Z,72.37
2023-04-11T07:20:09.547Z,72.27
2023-04-11T07:22:37.914Z,72.15
2023-04-11T07:25:06.196Z,72.76
2023-04-11T07:27:36.461Z,72.12
2023-04-11T07:30:05.126Z,72.55
2023-04-11T07:32:33.175Z,72.58
2023-04-11T07:35:01.430Z,73.04
2023-04-11T07:37:31.264Z,71.66
2023-04-11T07:39:59.227Z,72.33
2023-04-11T07:42:27.149Z,71.24
2023-04-11T07:44:55.165Z,72.96
2023-04-11T07:47:23.305Z,70.85
2023-04-11T07:49:51.395Z,69.16
2023-04-11T07:52:19.271Z,68.39
2023-04-11T07:54:47.308Z,66.48
2023-04-11T07:57:15.174Z,66.89
2023-04-11T07:59:43.751Z,67.04
2023-04-11T08:02:11.745Z,64.82
2023-04-11T08:04:39.930Z,64.69
2023-04-11T08:07:07.858Z,64.82
2023-04-11T08:09:37.799Z,64.64
2023-04-11T08:12:06.415Z,63.82
2023-04-11T08:14:34.477Z,64.58
2023-04-11T08:17:02.774Z,65.01
2023-04-11T08:19:31.623Z,65.92
2023-04-11T08:21:59.590Z,65.54
2023-04-11T08:24:27.403Z,65.67
2023-04-11T08:26:55.744Z,65.04
2023-04-11T08:29:23.679Z,64.79
2023-04-11T08:31:51.845Z,64.79
2023-04-11T08:34:19.737Z,64.38
2023-04-11T08:36:47.595Z,64.91
2023-04-11T08:39:15.845Z,64.98
2023-04-11T08:41:43.783Z,64.82
2023-04-11T08:44:13.164Z,64.50
2023-04-11T08:46:42.868Z,64.95
2023-04-11T08:49:11.390Z,63.60
2023-04-11T08:51:43.765Z,63.39
2023-04-11T08:54:12.372Z,62.73
2023-04-11T08:56:43.324Z,62.12
2023-04-11T08:59:11.337Z,62.56
2023-04-11T09:01:41.065Z,61.79
2023-04-11T09:04:10.805Z,62.61
2023-04-11T09:06:40.492Z,61.86
2023-04-11T09:09:09.862Z,61.95
2023-04-11T09:11:55.312Z,61.46
2023-04-11T09:14:27.313Z,61.71
2023-04-11T09:17:07.159Z,62.26
2023-04-11T09:19:35.789Z,60.86
2023-04-11T09:22:06.342Z,61.17
2023-04-11T09:24:36.045Z,61.42
2023-04-11T09:27:12.205Z,61.82
2023-04-11T09:29:45.770Z,61.50
2023-04-11T09:32:33.149Z,59.92
2023-04-11T09:35:12.811Z,59.27
2023-04-11T09:37:54.036Z,57.28
2023-04-11T09:40:23.111Z,55.60
2023-04-11T09:43:00.909Z,53.20
2023-04-11T09:45:32.251Z,51.42
2023-04-11T09:48:04.405Z,51.68
2023-04-11T09:50:34.448Z,50.11
2023-04-11T09:53:02.999Z,49.59
2023-04-11T09:55:31.230Z,50.02
2023-04-11T09:57:59.986Z,48.46
2023-04-11T10:00:32.687Z,47.47
2023-04-11T10:03:01.120Z,44.95
2023-04-11T10:05:30.695Z,43.72
2023-04-11T10:08:10.958Z,43.96
2023-04-11T10:10:39.204Z,43.74
2023-04-11T10:13:43.706Z,43.95
2023-04-11T10:16:19.798Z,43.03
2023-04-11T10:18:53.400Z,47.19
2023-04-11T10:21:33.186Z,48.71
2023-04-11T10:24:22.396Z,47.63
2023-04-11T10:26:57.968Z,46.17
2023-04-11T10:29:28.975Z,45.33
2023-04-11T10:32:09.024Z,43.59
2023-04-11T10:34:39.215Z,42.51
2023-04-11T10:37:09.264Z,42.88
2023-04-11T10:39:52.471Z,43.89
2023-04-11T10:42:33.870Z,43.41
2023-04-11T10:45:24.777Z,41.83
2023-04-11T10:48:13.680Z,41.52
2023-04-11T10:50:44.654Z,43.84
2023-04-11T10:53:36.613Z,46.27
2023-04-11T10:56:06.823Z,43.13
2023-04-11T10:58:41.016Z,44.16
2023-04-11T11:01:25.801Z,44.26
2023-04-11T11:04:03.260Z,44.27
2023-04-11T11:06:38.045Z,42.78
2023-04-11T11:09:23.484Z,41.53
2023-04-11T11:12:14.150Z,38.86
2023-04-11T11:14:44.579Z,39.79
2023-04-11T11:17:16.616Z,38.11
2023-04-11T11:19:46.213Z,38.68
2023-04-11T11:22:18.526Z,39.77
2023-04-11T11:24:49.269Z,39.93
2023-04-11T11:27:21.802Z,40.18
2023-04-11T11:29:50.694Z,39.40
2023-04-11T11:32:28.765Z,42.43
2023-04-11T11:38:11.337Z,42.20
2023-04-11T11:40:39.791Z,43.20
2023-04-11T11:43:08.053Z,43.50
2023-04-11T11:45:36.077Z,44.28
2023-04-11T11:48:04.405Z,43.99
2023-04-11T11:50:33.482Z,44.00
2023-04-11T11:53:17.008Z,43.91
2023-04-11T11:55:45.126Z,45.31
2023-04-11T11:58:13.124Z,46.10
2023-04-11T12:00:41.741Z,46.77
2023-04-11T12:03:11.136Z,47.02
2023-04-11T12:05:39.466Z,48.11
2023-04-11T12:08:08.014Z,46.87
2023-04-11T12:10:45.850Z,45.56
2023-04-11T12:13:13.870Z,44.39
2023-04-11T12:15:44.855Z,44.63
2023-04-11T12:18:13.167Z,44.97
2023-04-11T12:20:41.612Z,46.00
2023-04-11T12:23:09.683Z,46.40
2023-04-11T12:25:37.710Z,46.27
2023-04-11T12:28:06.271Z,46.16
2023-04-11T12:30:34.268Z,48.14
2023-04-11T12:33:02.420Z,48.96
2023-04-11T12:35:31.112Z,47.92
2023-04-11T12:37:59.466Z,46.31
2023-04-11T12:40:29.647Z,47.53
2023-04-11T12:42:57.867Z,47.49
2023-04-11T12:45:26.711Z,47.49
2023-04-11T12:47:57.428Z,47.15
2023-04-11T12:50:25.565Z,47.73
2023-04-11T12:52:53.472Z,46.91
2023-04-11T12:55:21.945Z,47.00
2023-04-11T12:57:50.035Z,46.87
2023-04-11T13:00:18.367Z,44.91
2023-04-11T13:02:47.215Z,46.21
2023-04-11T13:05:16.557Z,45.44
2023-04-11T13:07:46.419Z,47.28
2023-04-11T13:10:18.793Z,46.04
2023-04-11T13:12:48.238Z,44.38
2023-04-11T13:15:17.320Z,44.11
2023-04-11T13:17:45.895Z,43.90
2023-04-11T13:20:14.651Z,43.63
2023-04-11T13:22:43.553Z,43.60
2023-04-11T13:25:12.430Z,43.01
2023-04-11T13:27:42.308Z,43.35
2023-04-11T13:30:11.442Z,43.35
2023-04-11T13:32:39.679Z,42.58
2023-04-11T13:35:08.593Z,43.72
2023-04-11T13:37:36.624Z,44.55
2023-04-11T13:40:07.775Z,44.73
2023-04-11T13:42:35.777Z,43.67
2023-04-11T13:45:04.826Z,42.66
2023-04-11T13:47:35.414Z,41.87
2023-04-11T13:50:06.184Z,42.81
2023-04-11T13:52:34.166Z,42.91
2023-04-11T13:55:02.173Z,43.51
2023-04-11T13:57:30.085Z,43.82
2023-04-11T13:59:58.106Z,44.11
2023-04-11T14:02:26.385Z,44.19
2023-04-11T14:04:54.499Z,43.46
2023-04-11T14:07:22.483Z,44.05
2023-04-11T14:09:50.410Z,44.80
2023-04-11T14:12:18.680Z,44.27
2023-04-11T14:14:46.633Z,44.99
2023-04-11T14:17:14.568Z,46.45
2023-04-11T14:19:42.636Z,46.10
2023-04-11T14:22:10.956Z,45.76
2023-04-11T14:24:38.943Z,45.92
2023-04-11T14:27:06.865Z,45.53
2023-04-11T14:29:37.673Z,47.02
2023-04-11T14:32:07.153Z,47.34
2023-04-11T14:34:35.163Z,47.94
2023-04-11T14:37:03.362Z,48.74
2023-04-11T14:39:32.047Z,48.60
2023-04-11T14:42:02.343Z,48.79
2023-04-11T14:44:30.709Z,48.47
2023-04-11T14:46:59.533Z,48.58
2023-04-11T14:49:27.375Z,48.67
2023-04-11T14:51:55.726Z,48.82
2023-04-11T14:54:27.120Z,49.08
2023-04-11T14:56:55.119Z,49.38
2023-04-11T14:59:23.216Z,49.32
2023-04-11T15:01:51.811Z,49.96
2023-04-11T15:04:20.047Z,50.57
2023-04-11T15:06:47.929Z,51.70
2023-04-11T15:09:20.267Z,50.52
2023-04-11T15:11:49.058Z,51.44
2023-04-11T15:14:16.985Z,51.11
2023-04-11T15:16:45.111Z,50.57
2023-04-11T15:19:12.983Z,50.12
2023-04-11T15:21:40.981Z,50.75
2023-04-11T15:24:08.933Z,50.60
2023-04-11T15:26:36.939Z,50.78
2023-04-11T15:29:05.019Z,50.81
2023-04-11T15:31:33.263Z,51.48
2023-04-11T15:34:04.116Z,50.37
2023-04-11T15:36:32.154Z,51.08
2023-04-11T15:39:00.958Z,51.07
2023-04-11T15:41:28.969Z,50.28
2023-04-11T15:43:57.090Z,50.66
2023-04-11T15:46:25.168Z,51.43
2023-04-11T15:48:53.323Z,51.51
2023-04-11T15:51:22.367Z,52.17
2023-04-11T15:53:50.714Z,52.51
2023-04-11T15:56:19.913Z,52.43
2023-04-11T15:58:51.214Z,52.69
2023-04-11T16:01:26.263Z,53.03
2023-04-11T16:03:54.441Z,52.95
2023-04-11T16:06:22.681Z,52.99
2023-04-11T16:08:51.256Z,53.63
2023-04-11T16:11:19.222Z,54.77
2023-04-11T16:13:47.188Z,53.49
2023-04-11T16:16:15.281Z,54.51
2023-04-11T16:18:43.257Z,54.02
2023-04-11T16:21:15.996Z,54.39
2023-04-11T16:23:44.145Z,54.05
2023-04-11T16:26:12.058Z,54.82
2023-04-11T16:28:39.955Z,54.45
2023-04-11T16:31:08.162Z,55.09
2023-04-11T16:33:36.102Z,55.94
2023-04-11T16:36:04.536Z,56.00
2023-04-11T16:38:32.515Z,56.30
2023-04-11T16:41:01.177Z,56.39
2023-04-11T16:43:29.124Z,56.86
2023-04-11T16:45:57.234Z,56.84
2023-04-11T16:48:25.336Z,57.53
2023-04-11T16:50:53.500Z,57.83
2023-04-11T16:53:21.500Z,57.78
2023-04-11T16:55:49.535Z,57.72
2023-04-11T16:58:17.376Z,58.52
2023-04-11T17:00:45.842Z,57.68
2023-04-11T17:03:13.987Z,57.37
2023-04-11T17:05:41.959Z,57.37
2023-04-11T17:08:09.957Z,57.91
2023-04-11T17:10:38.106Z,58.31
2023-04-11T17:13:06.082Z,58.13
2023-04-11T17:15:35.151Z,58.05
2023-04-11T17:18:03.249Z,58.58
2023-04-11T17:20:31.429Z,58.25
2023-04-11T17:22:59.453Z,58.12
2023-04-11T17:25:29.698Z,58.27
2023-04-11T17:27:57.885Z,58.92
2023-04-11T17:30:26.249Z,58.10
2023-04-11T17:32:55.598Z,58.35
2023-04-11T17:35:24.091Z,58.14
2023-04-11T17:37:52.462Z,58.99
2023-04-11T17:40:21.413Z,58.41
2023-04-11T17:42:49.983Z,58.83
2023-04-11T17:45:19.617Z,59.63
2023-04-11T17:47:48.186Z,59.11
2023-04-11T17:50:18.071Z,59.22
2023-04-11T17:52:47.839Z,58.91
2023-04-11T17:55:18.596Z,59.12
2023-04-11T17:57:50.627Z,59.36
2023-04-11T18:00:26.489Z,59.13
2023-04-11T18:02:59.411Z,59.43
2023-04-11T18:05:35.187Z,59.87
2023-04-11T18:08:04.863Z,60.02
2023-04-11T18:10:33.265Z,59.80
2023-04-11T18:13:01.931Z,60.20
2023-04-11T18:15:30.338Z,60.46
2023-04-11T18:17:59.319Z,60.35
2023-04-11T18:20:27.897Z,61.44
2023-04-11T18:22:56.577Z,61.54
2023-04-11T18:25:25.212Z,61.82
2023-04-11T18:27:53.689Z,61.83
2023-04-11T18:30:22.316Z,62.09
2023-04-11T18:32:54.208Z,62.76
2023-04-11T18:35:23.966Z,62.87
2023-04-11T18:37:53.721Z,63.42
2023-04-11T18:40:22.891Z,63.46
2023-04-11T18:42:53.288Z,63.73
2023-04-11T18:45:22.741Z,63.91
2023-04-11T18:47:51.365Z,63.95
2023-04-11T18:50:19.941Z,64.19
2023-04-11T18:52:52.904Z,63.94
2023-04-11T18:55:24.383Z,63.86
2023-04-11T18:57:56.445Z,64.01
2023-04-11T19:00:26.708Z,64.16
2023-04-11T19:02:55.115Z,64.48
2023-04-11T19:05:25.417Z,64.79
2023-04-11T19:07:54.440Z,64.22
2023-04-11T19:10:22.823Z,64.22
2023-04-11T19:12:51.304Z,64.42
2023-04-11T19:15:20.016Z,64.45
2023-04-11T19:17:48.583Z,64.52
2023-04-11T19:20:17.853Z,64.14
2023-04-11T19:22:46.972Z,64.74
2023-04-11T19:25:15.385Z,65.11
2023-04-11T19:27:44.637Z,64.32
2023-04-11T19:30:14.217Z,64.33
2023-04-11T19:32:44.404Z,64.74
2023-04-11T19:35:13.460Z,64.28
2023-04-11T19:37:42.094Z,64.55
2023-04-11T19:40:11.315Z,64.19
2023-04-11T19:42:40.895Z,64.97
2023-04-11T19:45:11.243Z,64.51
2023-04-11T19:47:41.121Z,64.80
2023-04-11T19:50:14.654Z,65.25
2023-04-11T19:52:43.459Z,65.17
2023-04-11T19:55:12.759Z,66.06
2023-04-11T19:57:43.984Z,65.99
2023-04-11T20:00:14.345Z,65.95
2023-04-11T20:02:48.892Z,66.38
2023-04-11T20:05:20.070Z,66.62
2023-04-11T20:07:48.485Z,66.76
2023-04-11T20:10:17.694Z,67.06
2023-04-11T20:12:46.208Z,67.26
2023-04-11T20:15:15.258Z,67.67
2023-04-11T20:17:46.398Z,67.61
2023-04-11T20:20:15.853Z,68.04
2023-04-11T20:22:45.151Z,68.53
2023-04-11T20:25:13.741Z,68.91
2023-04-11T20:27:43.148Z,68.88
2023-04-11T20:30:12.491Z,69.05
2023-04-11T20:32:41.812Z,68.77
2023-04-11T20:35:12.337Z,69.09
2023-04-11T20:37:43.876Z,69.31
2023-04-11T20:40:14.513Z,69.21
2023-04-11T20:42:46.213Z,69.38
2023-04-11T20:45:17.062Z,69.43
2023-04-11T20:47:50.294Z,69.30
2023-04-11T20:50:19.701Z,69.40
2023-04-11T20:52:50.654Z,69.89
2023-04-11T20:55:19.356Z,69.72
2023-04-11T20:57:47.678Z,69.84
2023-04-11T21:00:17.424Z,69.70
2023-04-11T21:02:50.417Z,69.38
2023-04-11T21:05:25.334Z,70.31
2023-04-11T21:07:58.694Z,69.66
2023-04-11T21:10:26.669Z,69.80
2023-04-11T21:12:54.686Z,69.51
2023-04-11T21:15:23.352Z,69.26
2023-04-11T21:17:52.521Z,69.29
2023-04-11T21:20:21.467Z,69.30
2023-04-11T21:22:53.319Z,69.68
2023-04-11T21:25:22.385Z,69.44
2023-04-11T21:27:50.527Z,69.53
2023-04-11T21:30:18.684Z,70.10
2023-04-11T21:32:47.203Z,69.71
2023-04-11T21:35:15.255Z,69.99
2023-04-11T21:37:43.256Z,69.65
2023-04-11T21:40:12.903Z,69.90
2023-04-11T21:42:41.174Z,70.24
2023-04-11T21:45:09.447Z,70.25
2023-04-11T21:47:37.910Z,70.34
2023-04-11T21:50:06.741Z,70.19
2023-04-11T21:52:34.779Z,70.73
2023-04-11T21:55:02.849Z,70.93
2023-04-11T21:57:34.063Z,70.22
2023-04-11T22:00:02.328Z,70.50
2023-04-11T22:02:40.632Z,70.70
2023-04-11T22:05:09.673Z,70.97
2023-04-11T22:07:46.994Z,70.44
2023-04-11T22:10:15.615Z,70.64
2023-04-11T22:12:45.902Z,70.44
2023-04-11T22:15:14.352Z,70.55
2023-04-11T22:17:43.757Z,70.69
2023-04-11T22:20:12.300Z,71.12
2023-04-11T22:22:40.388Z,70.75
2023-04-11T22:25:10.160Z,70.64
2023-04-11T22:27:38.723Z,70.21
2023-04-11T22:30:07.915Z,70.63
2023-04-11T22:32:37.306Z,70.45
2023-04-11T22:35:06.984Z,70.62
2023-04-11T22:37:34.885Z,70.87
2023-04-11T22:40:06.308Z,71.00
2023-04-11T22:42:34.908Z,70.40
2023-04-11T22:45:11.172Z,70.33
2023-04-11T22:47:45.987Z,70.31
2023-04-11T22:50:18.436Z,71.38
2023-04-11T22:52:52.523Z,70.87
2023-04-11T22:55:24.970Z,70.98
2023-04-11T22:57:52.956Z,71.14
2023-04-11T23:00:24.234Z,71.14
2023-04-11T23:03:00.877Z,71.15
2023-04-11T23:05:31.953Z,70.68
2023-04-11T23:07:59.884Z,70.88
2023-04-11T23:10:29.118Z,70.80
2023-04-11T23:12:57.200Z,70.93
2023-04-11T23:15:25.412Z,70.98
2023-04-11T23:17:53.510Z,71.06
2023-04-11T23:20:22.414Z,70.99
2023-04-11T23:22:50.409Z,71.36
2023-04-11T23:25:22.496Z,71.51
2023-04-11T23:27:50.433Z,71.00
2023-04-11T23:30:18.308Z,71.17
2023-04-11T23:32:46.406Z,71.15
2023-04-11T23:35:17.124Z,71.30
2023-04-11T23:37:45.914Z,70.93
2023-04-11T23:40:14.233Z,71.15
2023-04-11T23:42:42.495Z,70.84
2023-04-11T23:45:11.862Z,70.93
2023-04-11T23:47:39.823Z,71.15
2023-04-11T23:50:08.643Z,71.03
2023-04-11T23:52:36.511Z,70.80
2023-04-11T23:55:05.172Z,71.04
2023-04-11T23:57:33.277Z,71.31
